logo dgac
Domingo 26 de Marzo del 2017
Buscar por aerodromo o helipuerto
Ingrese nombre de aeródromo, localidad o designador OACI:

Buscar por Fir

METAR del 26-03-2017 a las 03:00 UTC
METAR SCIE 260300Z 05004KT 9999 SCT003 BKN020 15/14 Q1015
Viento: dirección 050 grados, velocidad 4 nudos
Visibilidad: 10 km o más
Nubes: Nubosidad parcial a 300 pies sobre el nivel del aeródromo
Nubes: Nublado a 2000 pies sobre el nivel del aeródromo
Temperatura: 15 °C
Rocío: 14 °C
Humedad_relativa: 94%
Presión: 1015 hPa
SPECI del 26-03-2017 a las 02:28 UTC
SPECI SCIE 260228Z 04005KT 9999 BKN025 15/14 Q1015
Viento: dirección 040 grados, velocidad 5 nudos
Visibilidad: 10 km o más
Nubes: Nublado a 2500 pies sobre el nivel del aeródromo
Temperatura: 15 °C
Rocío: 14 °C
Humedad_relativa: 94%
Presión: 1015 hPa
METAR del 26-03-2017 a las 02:00 UTC
METAR SCIE 260200Z 05003KT 9999 FEW025 15/14 Q1015
Viento: dirección 050 grados, velocidad 3 nudos
Visibilidad: 10 km o más
Nubes: Escasa nubosidad a 2500 pies sobre el nivel del aeródromo
Temperatura: 15 °C
Rocío: 14 °C
Humedad_relativa: 94%
Presión: 1015 hPa
METAR del 26-03-2017 a las 01:00 UTC
METAR SCIE 260100Z 36003KT 9999 FEW030 15/14 Q1015
Viento: dirección 360 grados, velocidad 3 nudos
Visibilidad: 10 km o más
Nubes: Escasa nubosidad a 3000 pies sobre el nivel del aeródromo
Temperatura: 15 °C
Rocío: 14 °C
Humedad_relativa: 94%
Presión: 1015 hPa
METAR del 26-03-2017 a las 00:00 UTC
METAR SCIE 260000Z 05003KT 9999 FEW040 15/13 Q1015
Viento: dirección 050 grados, velocidad 3 nudos
Visibilidad: 10 km o más
Nubes: Escasa nubosidad a 4000 pies sobre el nivel del aeródromo
Temperatura: 15 °C
Rocío: 13 °C
Humedad_relativa: 88%
Presión: 1015 hPa
METAR del 25-03-2017 a las 23:00 UTC
METAR SCIE 252300Z 02005KT 9999 FEW030 16/13 Q1015
Viento: dirección 020 grados, velocidad 5 nudos
Visibilidad: 10 km o más
Nubes: Escasa nubosidad a 3000 pies sobre el nivel del aeródromo
Temperatura: 16 °C
Rocío: 13 °C
Humedad_relativa: 82%
Presión: 1015 hPa
METAR del 25-03-2017 a las 22:00 UTC
METAR SCIE 252200Z 02009KT 9999 FEW030 SCT040 17/13 Q1015
Viento: dirección 020 grados, velocidad 9 nudos
Visibilidad: 10 km o más
Nubes: Escasa nubosidad a 3000 pies sobre el nivel del aeródromo
Nubes: Nubosidad parcial a 4000 pies sobre el nivel del aeródromo
Temperatura: 17 °C
Rocío: 13 °C
Humedad_relativa: 77%
Presión: 1015 hPa
METAR del 25-03-2017 a las 21:00 UTC
METAR SCIE 252100Z 35007KT 290V040 9999 FEW030 SCT040 19/13 Q1015
Viento: dirección 350 grados, velocidad 7 nudos
Viento con dirección variable entre 290 y 040 grados
Visibilidad: 10 km o más
Nubes: Escasa nubosidad a 3000 pies sobre el nivel del aeródromo
Nubes: Nubosidad parcial a 4000 pies sobre el nivel del aeródromo
Temperatura: 19 °C
Rocío: 13 °C
Humedad_relativa: 68%
Presión: 1015 hPa
METAR del 25-03-2017 a las 20:00 UTC
METAR SCIE 252000Z 01010KT 330V050 9999 FEW023 SCT037 BKN090 19/12 Q1015
Viento: dirección 010 grados, velocidad 10 nudos
Viento con dirección variable entre 330 y 050 grados
Visibilidad: 10 km o más
Nubes: Escasa nubosidad a 2300 pies sobre el nivel del aeródromo
Nubes: Nubosidad parcial a 3700 pies sobre el nivel del aeródromo
Nubes: Nublado a 9000 pies sobre el nivel del aeródromo
Temperatura: 19 °C
Rocío: 12 °C
Humedad_relativa: 64%
Presión: 1015 hPa
METAR del 25-03-2017 a las 19:00 UTC
METAR SCIE 251900Z 36010KT 9999 FEW010 19/13 Q1015
Viento: dirección 360 grados, velocidad 10 nudos
Visibilidad: 10 km o más
Nubes: Escasa nubosidad a 1000 pies sobre el nivel del aeródromo
Temperatura: 19 °C
Rocío: 13 °C
Humedad_relativa: 68%
Presión: 1015 hPa